createdAt,value
2017-04-30T00:00:08.040Z,5.20
2017-04-30T00:01:07.570Z,5.12
2017-04-30T00:02:08.149Z,5.11
2017-04-30T00:03:07.651Z,5.10
2017-04-30T00:04:07.073Z,4.95
2017-04-30T00:05:07.391Z,5.03
2017-04-30T00:06:08.056Z,4.92
2017-04-30T00:07:07.694Z,4.81
2017-04-30T00:08:07.562Z,4.99
2017-04-30T00:09:08.056Z,4.97
2017-04-30T00:10:07.515Z,5.02
2017-04-30T00:11:08.042Z,4.94
2017-04-30T00:12:07.491Z,5.01
2017-04-30T00:13:08.021Z,5.10
2017-04-30T00:14:07.601Z,5.18
2017-04-30T00:15:07.211Z,5.10
2017-04-30T00:16:07.734Z,5.14
2017-04-30T00:17:07.369Z,5.02
2017-04-30T00:18:07.877Z,4.87
2017-04-30T00:19:07.361Z,4.92
2017-04-30T00:20:07.918Z,4.92
2017-04-30T00:21:07.423Z,4.93
2017-04-30T00:22:08.048Z,4.89
2017-04-30T00:23:07.520Z,4.98
2017-04-30T00:24:08.159Z,5.01
2017-04-30T00:25:07.687Z,5.05
2017-04-30T00:26:07.209Z,4.86
2017-04-30T00:27:07.680Z,4.88
2017-04-30T00:28:07.538Z,4.84
2017-04-30T00:29:07.090Z,4.85
2017-04-30T00:30:07.888Z,4.67
2017-04-30T00:31:07.456Z,4.70
2017-04-30T00:32:07.933Z,4.77
2017-04-30T00:33:07.636Z,4.75
2017-04-30T00:34:07.193Z,4.77
2017-04-30T00:35:07.690Z,4.72
2017-04-30T00:36:07.169Z,4.78
2017-04-30T00:37:07.967Z,4.84
2017-04-30T00:38:07.554Z,4.91
2017-04-30T00:39:07.082Z,4.89
2017-04-30T00:40:07.966Z,4.89
2017-04-30T00:41:07.465Z,4.91
2017-04-30T00:42:07.966Z,4.92
2017-04-30T00:43:07.549Z,4.89
2017-04-30T00:44:08.030Z,4.88
2017-04-30T00:45:07.592Z,4.69
2017-04-30T00:46:07.074Z,4.73
2017-04-30T00:47:07.527Z,4.71
2017-04-30T00:48:08.035Z,4.84
2017-04-30T00:49:07.945Z,4.92
2017-04-30T00:50:07.815Z,4.95
2017-04-30T00:51:07.276Z,4.88
2017-04-30T00:52:07.830Z,4.80
2017-04-30T00:53:07.403Z,4.80
2017-04-30T00:54:07.988Z,4.57
2017-04-30T00:55:07.595Z,4.67
2017-04-30T00:56:07.158Z,4.70
2017-04-30T00:57:07.807Z,4.61
2017-04-30T00:58:07.329Z,4.52
2017-04-30T00:59:07.976Z,4.71
2017-04-30T01:00:07.519Z,4.66
2017-04-30T01:01:08.204Z,4.71
2017-04-30T01:02:07.786Z,4.75
2017-04-30T01:03:07.296Z,4.79
2017-04-30T01:04:07.859Z,4.83
2017-04-30T01:05:07.326Z,4.83
2017-04-30T01:06:07.847Z,4.67
2017-04-30T01:07:07.570Z,4.66
2017-04-30T01:08:08.128Z,4.77
2017-04-30T01:09:07.699Z,4.70
2017-04-30T01:10:07.128Z,4.68
2017-04-30T01:11:07.140Z,4.60
2017-04-30T01:12:08.136Z,4.54
2017-04-30T01:13:07.895Z,4.70
2017-04-30T01:14:07.342Z,4.71
2017-04-30T01:15:07.842Z,4.75
2017-04-30T01:16:07.399Z,4.81
2017-04-30T01:17:08.076Z,4.64
2017-04-30T01:18:07.694Z,4.65
2017-04-30T01:19:07.147Z,4.56
2017-04-30T01:20:07.654Z,4.61
2017-04-30T01:21:07.412Z,4.59
2017-04-30T01:22:07.957Z,4.59
2017-04-30T01:23:07.762Z,4.63
2017-04-30T01:24:07.223Z,4.61
2017-04-30T01:25:07.784Z,4.57
2017-04-30T01:26:07.262Z,4.63
2017-04-30T01:27:07.877Z,4.59
2017-04-30T01:28:07.393Z,4.60
2017-04-30T01:29:07.985Z,4.67
2017-04-30T01:30:07.561Z,4.66
2017-04-30T01:31:08.368Z,4.68
2017-04-30T01:32:08.039Z,4.67
2017-04-30T01:33:07.676Z,4.68
2017-04-30T01:34:07.164Z,4.68
2017-04-30T01:35:08.106Z,4.57
2017-04-30T01:36:07.696Z,4.52
2017-04-30T01:37:07.443Z,4.48
2017-04-30T01:38:07.989Z,4.54
2017-04-30T01:39:07.577Z,4.57
2017-04-30T01:40:08.060Z,4.61
2017-04-30T01:41:07.528Z,4.54
2017-04-30T01:42:08.137Z,4.53
2017-04-30T01:43:07.686Z,4.36
2017-04-30T01:44:07.158Z,4.33
2017-04-30T01:45:07.648Z,4.49
2017-04-30T01:46:07.111Z,4.49
2017-04-30T01:47:07.657Z,4.48
2017-04-30T01:48:07.156Z,4.55
2017-04-30T01:49:07.721Z,4.62
2017-04-30T01:50:07.268Z,4.66
2017-04-30T01:51:07.832Z,4.50
2017-04-30T01:52:07.671Z,4.42
2017-04-30T01:53:07.374Z,4.38
2017-04-30T01:54:07.934Z,4.41
2017-04-30T01:55:07.488Z,4.38
2017-04-30T01:56:07.926Z,4.50
2017-04-30T01:57:07.865Z,4.53
2017-04-30T01:58:07.411Z,4.47
2017-04-30T01:59:08.096Z,4.45
2017-04-30T02:00:07.713Z,4.36
2017-04-30T02:01:07.231Z,4.37
2017-04-30T02:02:07.784Z,4.33
2017-04-30T02:03:07.289Z,4.40
2017-04-30T02:04:07.157Z,4.34
2017-04-30T02:05:07.742Z,4.37
2017-04-30T02:06:07.229Z,4.37
2017-04-30T02:07:07.880Z,4.29
2017-04-30T02:08:07.384Z,4.31
2017-04-30T02:09:07.836Z,4.27
2017-04-30T02:10:07.318Z,4.30
2017-04-30T02:11:07.875Z,4.30
2017-04-30T02:12:07.925Z,4.26
2017-04-30T02:13:07.671Z,4.24
2017-04-30T02:14:07.194Z,4.33
2017-04-30T02:15:07.822Z,4.46
2017-04-30T02:16:07.326Z,4.52
2017-04-30T02:17:08.139Z,4.49
2017-04-30T02:18:07.705Z,4.39
2017-04-30T02:19:07.142Z,4.26
2017-04-30T02:20:07.615Z,4.19
2017-04-30T02:21:07.119Z,4.14
2017-04-30T02:22:07.763Z,4.20
2017-04-30T02:23:07.572Z,4.08
2017-04-30T02:24:08.180Z,4.16
2017-04-30T02:25:07.764Z,4.11
2017-04-30T02:26:07.282Z,4.09
2017-04-30T02:27:08.070Z,4.13
2017-04-30T02:28:07.741Z,4.02
2017-04-30T02:29:07.620Z,4.12
2017-04-30T02:30:07.208Z,4.22
2017-04-30T02:31:07.808Z,4.29
2017-04-30T02:32:07.407Z,4.30
2017-04-30T02:33:07.922Z,4.41
2017-04-30T02:34:07.484Z,4.55
2017-04-30T02:35:08.311Z,4.58
2017-04-30T02:36:07.915Z,4.61
2017-04-30T02:37:09.081Z,4.61
2017-04-30T02:38:07.697Z,4.64
2017-04-30T02:39:07.206Z,4.55
2017-04-30T02:40:07.738Z,4.39
2017-04-30T02:41:07.204Z,4.25
2017-04-30T02:42:08.012Z,4.20
2017-04-30T02:43:07.626Z,4.09
2017-04-30T02:44:07.255Z,4.14
2017-04-30T02:45:07.777Z,4.03
2017-04-30T02:46:07.339Z,3.93
2017-04-30T02:47:07.845Z,4.04
2017-04-30T02:48:07.453Z,4.03
2017-04-30T02:49:07.964Z,4.11
2017-04-30T02:50:07.469Z,4.04
2017-04-30T02:51:07.941Z,4.08
2017-04-30T02:52:07.550Z,4.12
2017-04-30T02:53:08.054Z,3.89
2017-04-30T02:54:07.734Z,3.92
2017-04-30T02:55:07.353Z,3.90
2017-04-30T02:56:08.008Z,3.91
2017-04-30T02:57:07.657Z,3.95
2017-04-30T02:58:07.235Z,3.99
2017-04-30T02:59:07.798Z,3.97
2017-04-30T03:00:07.313Z,3.93
2017-04-30T03:01:07.811Z,4.03
2017-04-30T03:02:07.281Z,4.12
2017-04-30T03:03:07.865Z,4.04
2017-04-30T03:04:07.462Z,4.01
2017-04-30T03:05:08.242Z,3.98
2017-04-30T03:06:07.605Z,3.93
2017-04-30T03:07:07.374Z,3.88
2017-04-30T03:08:07.975Z,3.78
2017-04-30T03:09:07.499Z,3.89
2017-04-30T03:10:08.100Z,3.90
2017-04-30T03:11:07.972Z,3.94
2017-04-30T03:12:07.883Z,3.99
2017-04-30T03:13:07.472Z,3.79
2017-04-30T03:14:08.044Z,3.74
2017-04-30T03:15:07.864Z,3.72
2017-04-30T03:16:07.410Z,3.74
2017-04-30T03:17:08.098Z,3.89
2017-04-30T03:18:07.688Z,3.94
2017-04-30T03:19:07.144Z,3.92
2017-04-30T03:20:07.597Z,3.76
2017-04-30T03:21:08.087Z,3.81
2017-04-30T03:22:07.630Z,3.78
2017-04-30T03:23:07.085Z,3.78
2017-04-30T03:24:07.885Z,3.76
2017-04-30T03:25:07.406Z,3.74
2017-04-30T03:26:08.041Z,3.78
2017-04-30T03:27:07.686Z,3.70
2017-04-30T03:28:07.278Z,3.62
2017-04-30T03:29:07.116Z,3.57
2017-04-30T03:30:08.003Z,3.57
2017-04-30T03:31:07.505Z,3.54
2017-04-30T03:32:08.052Z,3.66
2017-04-30T03:33:07.584Z,3.75
2017-04-30T03:34:08.184Z,3.76
2017-04-30T03:35:07.718Z,3.70
2017-04-30T03:36:07.205Z,3.63
2017-04-30T03:37:07.893Z,3.67
2017-04-30T03:38:07.625Z,3.65
2017-04-30T03:39:07.116Z,3.66
2017-04-30T03:40:07.687Z,3.72
2017-04-30T03:41:07.305Z,3.73
2017-04-30T03:42:07.846Z,3.74
2017-04-30T03:43:07.358Z,3.67
2017-04-30T03:44:07.884Z,3.52
2017-04-30T03:45:07.466Z,3.50
2017-04-30T03:46:07.937Z,3.48
2017-04-30T03:47:07.490Z,3.53
2017-04-30T03:48:08.086Z,3.40
2017-04-30T03:49:07.906Z,3.44
2017-04-30T03:50:07.375Z,3.51
2017-04-30T03:51:07.905Z,3.57
2017-04-30T03:52:07.596Z,3.60
2017-04-30T03:53:07.115Z,3.68
2017-04-30T03:54:07.616Z,3.60
2017-04-30T03:55:07.234Z,3.47
2017-04-30T03:56:08.138Z,3.51
2017-04-30T03:57:07.695Z,3.36
2017-04-30T03:58:07.381Z,3.51
2017-04-30T03:59:07.847Z,3.53
2017-04-30T04:00:07.472Z,3.58
2017-04-30T04:01:08.083Z,3.48
2017-04-30T04:02:07.661Z,3.34
2017-04-30T04:03:07.215Z,3.44
2017-04-30T04:04:07.705Z,3.30
2017-04-30T04:05:07.228Z,3.33
2017-04-30T04:06:07.777Z,3.27
2017-04-30T04:07:07.376Z,3.32
2017-04-30T04:08:07.863Z,3.35
2017-04-30T04:09:07.711Z,3.40
2017-04-30T04:10:07.481Z,3.42
2017-04-30T04:11:08.020Z,3.40
2017-04-30T04:12:07.562Z,3.42
2017-04-30T04:13:08.300Z,3.52
2017-04-30T04:14:07.846Z,3.52
2017-04-30T04:15:07.306Z,3.44
2017-04-30T04:16:07.826Z,3.47
2017-04-30T04:17:07.560Z,3.45
2017-04-30T04:18:08.049Z,3.54
2017-04-30T04:19:07.596Z,3.56
2017-04-30T04:20:07.163Z,3.47
2017-04-30T04:21:07.698Z,3.36
2017-04-30T04:22:07.470Z,3.35
2017-04-30T04:23:08.063Z,3.31
2017-04-30T04:24:07.634Z,3.35
2017-04-30T04:25:09.534Z,3.42
2017-04-30T04:26:08.120Z,3.27
2017-04-30T04:27:07.709Z,3.41
2017-04-30T04:28:07.587Z,3.52
2017-04-30T04:29:08.121Z,3.64
2017-04-30T04:30:07.654Z,3.63
2017-04-30T04:31:07.138Z,3.45
2017-04-30T04:32:07.645Z,3.50
2017-04-30T04:33:07.211Z,3.66
2017-04-30T04:34:07.718Z,3.46
2017-04-30T04:35:07.310Z,3.57
2017-04-30T04:36:07.886Z,3.56
2017-04-30T04:37:07.477Z,3.64
2017-04-30T04:38:08.064Z,3.53
2017-04-30T04:39:07.981Z,3.65
2017-04-30T04:40:07.596Z,3.70
2017-04-30T04:41:08.495Z,3.67
2017-04-30T04:42:08.039Z,3.75
2017-04-30T04:43:07.565Z,3.82
2017-04-30T04:44:08.228Z,3.90
2017-04-30T04:45:07.849Z,3.91
2017-04-30T04:46:07.538Z,3.99
2017-04-30T04:47:08.996Z,3.91
2017-04-30T04:48:07.965Z,3.86
2017-04-30T04:49:07.433Z,3.70
2017-04-30T04:50:07.908Z,3.81
2017-04-30T04:51:07.577Z,3.79
2017-04-30T04:52:08.152Z,3.88
2017-04-30T04:53:07.831Z,3.86
2017-04-30T04:54:07.306Z,3.95
2017-04-30T04:55:08.097Z,3.98
2017-04-30T04:56:07.688Z,3.95
2017-04-30T04:57:07.193Z,4.01
2017-04-30T04:58:07.833Z,4.09
2017-04-30T04:59:07.386Z,4.00
2017-04-30T05:00:07.922Z,3.83
2017-04-30T05:01:07.630Z,3.76
2017-04-30T05:02:07.115Z,3.72
2017-04-30T05:03:07.773Z,3.97
2017-04-30T05:04:07.290Z,3.94
2017-04-30T05:05:07.946Z,4.04
2017-04-30T05:06:07.580Z,3.96
2017-04-30T05:07:07.273Z,3.86
2017-04-30T05:08:07.749Z,3.93
2017-04-30T05:09:07.222Z,3.86
2017-04-30T05:10:08.718Z,3.86
2017-04-30T05:11:07.527Z,3.94
2017-04-30T05:12:08.040Z,4.08
2017-04-30T05:13:07.907Z,4.26
2017-04-30T05:14:07.501Z,4.42
2017-04-30T05:15:08.480Z,4.44
2017-04-30T05:16:08.180Z,4.32
2017-04-30T05:17:07.860Z,4.34
2017-04-30T05:18:07.619Z,4.41
2017-04-30T05:19:07.219Z,4.30
2017-04-30T05:20:07.808Z,4.41
2017-04-30T05:21:07.322Z,4.44
2017-04-30T05:22:07.800Z,4.51
2017-04-30T05:23:07.338Z,4.47
2017-04-30T05:24:07.855Z,4.54
2017-04-30T05:25:07.625Z,4.50
2017-04-30T05:26:07.200Z,4.54
2017-04-30T05:27:07.722Z,4.66
2017-04-30T05:28:07.428Z,4.57
2017-04-30T05:29:07.996Z,4.62
2017-04-30T05:30:07.802Z,4.72
2017-04-30T05:31:07.356Z,4.65
2017-04-30T05:32:07.900Z,4.55
2017-04-30T05:33:07.474Z,4.64
2017-04-30T05:34:08.306Z,4.70
2017-04-30T05:35:07.919Z,4.73
2017-04-30T05:36:07.464Z,4.86
2017-04-30T05:37:08.124Z,4.93
2017-04-30T05:38:07.602Z,4.89
2017-04-30T05:39:07.092Z,4.89
2017-04-30T05:40:07.683Z,5.02
2017-04-30T05:41:07.312Z,4.98
2017-04-30T05:42:07.839Z,4.99
2017-04-30T05:43:07.307Z,5.06
2017-04-30T05:44:07.866Z,5.10
2017-04-30T05:45:07.427Z,5.08
2017-04-30T05:46:08.265Z,5.06
2017-04-30T05:47:07.808Z,5.07
2017-04-30T05:48:07.270Z,5.05
2017-04-30T05:49:07.798Z,5.19
2017-04-30T05:50:07.304Z,5.13
2017-04-30T05:51:07.901Z,5.20
2017-04-30T05:52:07.395Z,5.30
2017-04-30T05:53:07.871Z,5.37
2017-04-30T05:54:07.375Z,5.43
2017-04-30T05:55:07.849Z,5.48
2017-04-30T05:56:07.488Z,5.53
2017-04-30T05:57:08.022Z,5.50
2017-04-30T05:58:07.515Z,5.55
2017-04-30T05:59:08.006Z,5.54
2017-04-30T06:00:07.605Z,5.56
2017-04-30T06:01:07.222Z,5.61
2017-04-30T06:02:07.945Z,5.67
2017-04-30T06:03:07.535Z,5.65
2017-04-30T06:04:07.993Z,5.75
2017-04-30T06:05:07.829Z,5.63
2017-04-30T06:06:07.354Z,5.70
2017-04-30T06:07:08.471Z,5.87
2017-04-30T06:08:08.059Z,5.86
2017-04-30T06:09:07.535Z,5.83
2017-04-30T06:10:08.130Z,5.84
2017-04-30T06:11:07.728Z,5.89
2017-04-30T06:12:07.265Z,5.98
2017-04-30T06:13:07.936Z,6.02
2017-04-30T06:14:07.485Z,5.99
2017-04-30T06:15:08.025Z,6.04
2017-04-30T06:16:07.597Z,6.04
2017-04-30T06:17:07.313Z,6.18
2017-04-30T06:18:07.962Z,6.20
2017-04-30T06:19:07.590Z,6.24
2017-04-30T06:20:08.075Z,6.21
2017-04-30T06:21:07.600Z,6.22
2017-04-30T06:22:07.132Z,6.14
2017-04-30T06:23:07.731Z,6.08
2017-04-30T06:24:07.247Z,6.26
2017-04-30T06:25:07.733Z,6.39
2017-04-30T06:26:08.070Z,6.45
2017-04-30T06:27:07.580Z,6.50
2017-04-30T06:28:07.474Z,6.45
2017-04-30T06:29:08.076Z,6.48
2017-04-30T06:30:07.706Z,6.45
2017-04-30T06:31:07.193Z,6.46
2017-04-30T06:32:07.803Z,6.55
2017-04-30T06:33:07.342Z,6.65
2017-04-30T06:34:08.003Z,6.72
2017-04-30T06:35:07.521Z,6.74
2017-04-30T06:36:08.106Z,6.77
2017-04-30T06:37:07.806Z,6.79
2017-04-30T06:38:07.367Z,6.78
2017-04-30T06:39:08.198Z,6.80
2017-04-30T06:40:08.206Z,6.82
2017-04-30T06:41:07.815Z,6.79
2017-04-30T06:42:07.326Z,6.76
2017-04-30T06:43:07.935Z,6.86
2017-04-30T06:44:07.578Z,6.92
2017-04-30T06:45:08.016Z,6.82
2017-04-30T06:46:07.507Z,6.87
2017-04-30T06:47:08.099Z,6.97
2017-04-30T06:48:07.567Z,7.00
2017-04-30T06:49:07.277Z,7.07
2017-04-30T06:50:07.823Z,7.10
2017-04-30T06:51:07.306Z,7.16
2017-04-30T06:52:07.819Z,7.12
2017-04-30T06:53:07.377Z,7.19
2017-04-30T06:54:07.891Z,7.25
2017-04-30T06:55:07.503Z,7.23
2017-04-30T06:56:08.109Z,7.26
2017-04-30T06:57:07.667Z,7.20
2017-04-30T06:58:07.229Z,7.23
2017-04-30T06:59:07.734Z,7.16
2017-04-30T07:00:07.225Z,7.27
2017-04-30T07:01:08.703Z,7.39
2017-04-30T07:02:07.278Z,7.47
2017-04-30T07:03:31.510Z,7.50
2017-04-30T07:04:08.045Z,7.54
2017-04-30T07:05:07.525Z,7.42
2017-04-30T07:06:08.013Z,7.31
2017-04-30T07:07:07.809Z,7.29
2017-04-30T07:08:07.456Z,7.37
2017-04-30T07:09:08.015Z,7.48
2017-04-30T07:10:07.617Z,7.56
2017-04-30T07:11:07.475Z,7.50
2017-04-30T07:12:08.052Z,7.44
2017-04-30T07:13:07.573Z,7.46
2017-04-30T07:14:23.777Z,7.54
2017-04-30T07:15:07.681Z,7.54
2017-04-30T07:16:07.207Z,7.54
2017-04-30T07:17:07.875Z,7.57
2017-04-30T07:18:07.489Z,7.59
2017-04-30T07:19:08.155Z,7.64
2017-04-30T07:20:07.737Z,7.69
2017-04-30T07:21:07.610Z,7.81
2017-04-30T07:22:07.149Z,7.82
2017-04-30T07:23:07.663Z,7.90
2017-04-30T07:24:07.322Z,7.91
2017-04-30T07:25:07.837Z,7.99
2017-04-30T07:26:07.457Z,7.94
2017-04-30T07:27:08.028Z,7.89
2017-04-30T07:28:07.616Z,7.87
2017-04-30T07:29:07.188Z,7.92
2017-04-30T07:30:07.815Z,7.98
2017-04-30T07:31:07.346Z,8.02
2017-04-30T07:32:07.863Z,8.04
2017-04-30T07:33:07.717Z,7.91
2017-04-30T07:34:07.234Z,7.93
2017-04-30T07:35:07.847Z,8.02
2017-04-30T07:36:07.326Z,8.06
2017-04-30T07:37:07.918Z,8.02
2017-04-30T07:38:07.462Z,8.06
2017-04-30T07:39:08.154Z,8.11
2017-04-30T07:40:07.706Z,8.16
2017-04-30T07:41:07.292Z,8.22
2017-04-30T07:42:07.775Z,8.26
2017-04-30T07:43:07.298Z,8.30
2017-04-30T07:44:07.815Z,8.30
2017-04-30T07:45:07.328Z,8.30
2017-04-30T07:46:07.924Z,8.33
2017-04-30T07:47:07.400Z,8.38
2017-04-30T07:48:08.015Z,8.40
2017-04-30T07:49:07.495Z,8.43
2017-04-30T07:50:07.986Z,8.51
2017-04-30T07:51:07.600Z,8.55
2017-04-30T07:52:07.687Z,8.55
2017-04-30T07:53:07.213Z,8.57
2017-04-30T07:54:07.988Z,8.61
2017-04-30T07:55:07.531Z,8.61
2017-04-30T07:56:08.108Z,8.61
2017-04-30T07:57:07.666Z,8.65
2017-04-30T07:58:07.207Z,8.76
2017-04-30T07:59:07.734Z,8.77
2017-04-30T08:00:07.580Z,8.85
2017-04-30T08:01:07.214Z,8.81
2017-04-30T08:02:07.775Z,8.79
2017-04-30T08:03:07.267Z,8.84
2017-04-30T08:04:07.732Z,8.93
2017-04-30T08:05:07.516Z,8.93
2017-04-30T08:06:08.292Z,8.88
2017-04-30T08:07:07.931Z,8.91
2017-04-30T08:08:07.460Z,9.01
2017-04-30T08:09:08.102Z,8.98
2017-04-30T08:10:07.584Z,9.00
2017-04-30T08:11:07.134Z,9.00
2017-04-30T08:12:07.628Z,9.06
2017-04-30T08:13:07.290Z,9.12
2017-04-30T08:14:07.767Z,9.16
2017-04-30T08:15:07.403Z,9.12
2017-04-30T08:16:08.008Z,9.16
2017-04-30T08:17:07.637Z,9.14
2017-04-30T08:18:07.143Z,9.10
2017-04-30T08:19:07.703Z,9.16
2017-04-30T08:20:07.109Z,9.13
2017-04-30T08:21:07.667Z,9.18
2017-04-30T08:22:07.274Z,9.13
2017-04-30T08:23:07.819Z,9.15
2017-04-30T08:24:07.364Z,9.21
2017-04-30T08:25:07.901Z,9.26
2017-04-30T08:26:07.647Z,9.39
2017-04-30T08:27:07.167Z,9.48
2017-04-30T08:28:07.801Z,9.59
2017-04-30T08:29:07.244Z,9.57
2017-04-30T08:30:07.923Z,9.65
2017-04-30T08:31:07.467Z,9.65
2017-04-30T08:32:07.975Z,9.63
2017-04-30T08:33:07.488Z,9.62
2017-04-30T08:34:08.026Z,9.62
2017-04-30T08:35:07.596Z,9.71
2017-04-30T08:36:07.151Z,9.68
2017-04-30T08:37:08.048Z,9.62
2017-04-30T08:38:07.599Z,9.73
2017-04-30T08:39:07.096Z,9.80
2017-04-30T08:40:07.551Z,9.83
2017-04-30T08:41:08.004Z,9.82
2017-04-30T08:42:07.605Z,9.84
2017-04-30T08:43:07.178Z,9.80
2017-04-30T08:44:07.907Z,9.81
2017-04-30T08:45:07.578Z,9.79
2017-04-30T08:46:07.194Z,9.79
2017-04-30T08:47:07.997Z,9.74
2017-04-30T08:48:07.536Z,9.72
2017-04-30T08:49:08.197Z,9.73
2017-04-30T08:50:07.690Z,9.91
2017-04-30T08:51:07.535Z,10.04
2017-04-30T08:52:08.114Z,10.03
2017-04-30T08:53:07.952Z,9.97
2017-04-30T08:54:07.563Z,10.04
2017-04-30T08:55:08.187Z,10.15
2017-04-30T08:56:07.902Z,10.17
2017-04-30T08:57:07.446Z,10.12
2017-04-30T08:58:08.056Z,10.22
2017-04-30T08:59:07.600Z,10.10
2017-04-30T09:00:07.304Z,10.10
2017-04-30T09:01:07.899Z,10.28
2017-04-30T09:02:07.450Z,10.28
2017-04-30T09:03:08.087Z,10.33
2017-04-30T09:04:07.669Z,10.33
2017-04-30T09:05:07.295Z,10.27
2017-04-30T09:06:07.447Z,10.31
2017-04-30T09:07:08.084Z,10.49
2017-04-30T09:08:07.800Z,10.52
2017-04-30T09:09:07.295Z,10.43
2017-04-30T09:10:07.846Z,10.43
2017-04-30T09:11:07.279Z,10.48
2017-04-30T09:12:07.813Z,10.51
2017-04-30T09:13:07.949Z,10.63
2017-04-30T09:14:07.484Z,10.59
2017-04-30T09:15:08.021Z,10.52
2017-04-30T09:16:07.482Z,10.98
2017-04-30T09:17:08.117Z,10.89
2017-04-30T09:18:07.963Z,10.72
2017-04-30T09:19:07.581Z,10.70
2017-04-30T09:20:07.415Z,10.77
2017-04-30T09:21:08.001Z,10.82
2017-04-30T09:22:07.812Z,10.84
2017-04-30T09:23:07.371Z,10.78
2017-04-30T09:24:08.016Z,10.69
2017-04-30T09:25:07.567Z,10.68
2017-04-30T09:26:08.190Z,10.73
2017-04-30T09:27:07.677Z,10.83
2017-04-30T09:28:07.146Z,10.96
2017-04-30T09:29:07.679Z,10.95
2017-04-30T09:30:07.270Z,10.88
2017-04-30T09:31:08.119Z,11.05
2017-04-30T09:32:07.707Z,11.23
2017-04-30T09:33:07.121Z,11.27
2017-04-30T09:34:07.638Z,11.34
2017-04-30T09:35:07.230Z,11.36
2017-04-30T09:36:07.793Z,11.27
2017-04-30T09:37:07.388Z,11.35
2017-04-30T09:38:07.985Z,11.37
2017-04-30T09:39:07.667Z,11.31
2017-04-30T09:40:07.203Z,11.14
2017-04-30T09:41:07.711Z,11.14
2017-04-30T09:42:07.299Z,11.22
2017-04-30T09:43:07.840Z,11.42
2017-04-30T09:44:07.366Z,11.57
2017-04-30T09:45:08.056Z,11.64
2017-04-30T09:46:07.714Z,11.54
2017-04-30T09:47:07.383Z,11.32
2017-04-30T09:48:07.883Z,11.42
2017-04-30T09:49:07.573Z,11.51
2017-04-30T09:50:07.131Z,11.53
2017-04-30T09:51:07.644Z,11.54
2017-04-30T09:52:07.130Z,11.63
2017-04-30T09:53:07.674Z,11.46
2017-04-30T09:54:07.340Z,11.35
2017-04-30T09:55:07.818Z,11.38
2017-04-30T09:56:07.570Z,11.55
2017-04-30T09:57:08.170Z,11.52
2017-04-30T09:58:07.873Z,11.40
2017-04-30T09:59:07.441Z,11.45
2017-04-30T10:00:08.037Z,11.41
2017-04-30T10:01:07.759Z,11.38
2017-04-30T10:02:07.510Z,11.63
2017-04-30T10:03:07.990Z,11.56
2017-04-30T10:04:07.617Z,11.43
2017-04-30T10:05:07.084Z,11.49
2017-04-30T10:06:07.693Z,11.60
2017-04-30T10:07:07.478Z,11.73
2017-04-30T10:08:08.118Z,11.73
2017-04-30T10:09:07.628Z,11.71
2017-04-30T10:10:07.451Z,11.62
2017-04-30T10:11:08.276Z,11.78
2017-04-30T10:12:07.693Z,11.91
2017-04-30T10:13:07.985Z,11.81
2017-04-30T10:14:07.523Z,11.93
2017-04-30T10:15:08.107Z,11.97
2017-04-30T10:16:07.655Z,12.01
2017-04-30T10:17:07.306Z,12.08
2017-04-30T10:18:07.856Z,12.03
2017-04-30T10:19:07.673Z,12.13
2017-04-30T10:20:07.330Z,12.09
2017-04-30T10:21:08.014Z,12.17
2017-04-30T10:22:07.569Z,12.06
2017-04-30T10:23:08.157Z,12.13
2017-04-30T10:24:08.080Z,12.20
2017-04-30T10:25:07.579Z,12.33
2017-04-30T10:26:08.154Z,12.20
2017-04-30T10:27:07.678Z,12.11
2017-04-30T10:28:07.257Z,12.25
2017-04-30T10:29:07.827Z,12.33
2017-04-30T10:30:07.416Z,12.29
2017-04-30T10:31:07.996Z,12.34
2017-04-30T10:32:07.440Z,12.35
2017-04-30T10:33:08.138Z,12.58
2017-04-30T10:34:07.668Z,12.57
2017-04-30T10:35:07.124Z,12.47
2017-04-30T10:36:07.696Z,12.48
2017-04-30T10:37:07.245Z,12.43
2017-04-30T10:38:07.533Z,12.62
2017-04-30T10:39:08.106Z,12.55
2017-04-30T10:40:07.579Z,12.45
2017-04-30T10:41:07.056Z,12.49
2017-04-30T10:42:07.487Z,12.47
2017-04-30T10:43:08.111Z,12.38
2017-04-30T10:44:07.600Z,12.40
2017-04-30T10:45:07.242Z,12.44
2017-04-30T10:46:07.297Z,12.38
2017-04-30T10:47:07.831Z,12.28
2017-04-30T10:48:07.472Z,12.33
2017-04-30T10:49:07.951Z,12.39
2017-04-30T10:50:07.438Z,12.44
2017-04-30T10:51:07.975Z,12.44
2017-04-30T10:52:07.468Z,12.48
2017-04-30T10:53:07.912Z,12.54
2017-04-30T10:54:08.021Z,12.48
2017-04-30T10:55:07.897Z,12.48
2017-04-30T10:56:07.493Z,12.49
2017-04-30T10:57:08.177Z,12.67
2017-04-30T10:58:07.973Z,12.57
2017-04-30T10:59:07.536Z,12.73
2017-04-30T11:00:08.136Z,12.60
2017-04-30T11:01:07.730Z,12.58
2017-04-30T11:02:07.246Z,12.69
2017-04-30T11:03:07.725Z,12.79
2017-04-30T11:04:07.346Z,12.91
2017-04-30T11:05:07.850Z,12.83
2017-04-30T11:06:07.410Z,13.11
2017-04-30T11:07:08.048Z,13.13
2017-04-30T11:08:07.667Z,13.07
2017-04-30T11:09:07.196Z,13.51
2017-04-30T11:10:07.724Z,13.93
2017-04-30T11:11:07.321Z,13.72
2017-04-30T11:12:07.357Z,13.48
2017-04-30T11:13:07.919Z,13.40
2017-04-30T11:14:07.432Z,13.36
2017-04-30T11:15:08.335Z,13.37
2017-04-30T11:16:07.886Z,13.50
2017-04-30T11:17:07.584Z,13.59
2017-04-30T11:18:08.166Z,13.62
2017-04-30T11:19:07.742Z,13.47
2017-04-30T11:20:07.467Z,13.44
2017-04-30T11:21:08.002Z,13.46
2017-04-30T11:22:07.467Z,13.31
2017-04-30T11:23:08.046Z,13.27
2017-04-30T11:24:07.585Z,13.12
2017-04-30T11:25:08.212Z,13.43
2017-04-30T11:26:07.836Z,13.36
2017-04-30T11:27:07.281Z,13.49
2017-04-30T11:28:07.612Z,13.39
2017-04-30T11:29:07.221Z,13.34
2017-04-30T11:30:07.718Z,13.40
2017-04-30T11:31:07.316Z,13.44
2017-04-30T11:32:08.007Z,13.49
2017-04-30T11:33:07.885Z,13.57
2017-04-30T11:34:07.413Z,13.38
2017-04-30T11:35:07.919Z,13.33
2017-04-30T11:36:07.526Z,13.43
2017-04-30T11:37:08.195Z,13.91
2017-04-30T11:38:08.094Z,13.77
2017-04-30T11:39:07.662Z,13.65
2017-04-30T11:40:07.262Z,13.65
2017-04-30T11:41:07.813Z,14.19
2017-04-30T11:42:07.596Z,14.02
2017-04-30T11:43:07.123Z,14.00
2017-04-30T11:44:07.653Z,14.19
2017-04-30T11:45:07.174Z,13.89
2017-04-30T11:46:07.974Z,13.91
2017-04-30T11:47:07.636Z,13.96
2017-04-30T11:48:07.348Z,14.07
2017-04-30T11:49:07.928Z,14.24
2017-04-30T11:50:07.491Z,13.99
2017-04-30T11:51:08.161Z,14.00
2017-04-30T11:52:07.653Z,13.99
2017-04-30T11:53:07.103Z,14.02
2017-04-30T11:54:07.654Z,14.15
2017-04-30T11:55:07.262Z,14.60
2017-04-30T11:56:07.720Z,14.42
2017-04-30T11:57:07.453Z,14.55
2017-04-30T11:58:08.227Z,14.61
2017-04-30T11:59:07.808Z,14.36
2017-04-30T12:00:07.463Z,14.51
2017-04-30T12:01:07.922Z,14.73
2017-04-30T12:02:07.994Z,14.52
2017-04-30T12:03:08.653Z,14.43
2017-04-30T12:04:07.281Z,14.47
2017-04-30T12:05:07.738Z,14.36
2017-04-30T12:06:07.178Z,14.43
2017-04-30T12:07:07.968Z,14.28
2017-04-30T12:08:07.644Z,14.43
2017-04-30T12:09:07.147Z,14.42
2017-04-30T12:10:07.639Z,14.75
2017-04-30T12:11:07.112Z,14.67
2017-04-30T12:12:07.581Z,14.58
2017-04-30T12:13:07.143Z,14.44
2017-04-30T12:14:07.638Z,14.41
2017-04-30T12:15:07.091Z,14.44
2017-04-30T12:16:07.574Z,14.44
2017-04-30T12:17:08.296Z,14.43
2017-04-30T12:18:07.887Z,14.52
2017-04-30T12:19:07.552Z,14.64
2017-04-30T12:20:08.078Z,14.58
2017-04-30T12:21:07.923Z,14.65
2017-04-30T12:22:07.431Z,14.69
2017-04-30T12:23:07.978Z,14.74
2017-04-30T12:24:07.510Z,14.74
2017-04-30T12:25:07.997Z,14.75
2017-04-30T12:26:07.613Z,14.69
2017-04-30T12:27:07.215Z,14.65
2017-04-30T12:28:07.830Z,14.63
2017-04-30T12:29:07.442Z,14.74
2017-04-30T12:30:07.971Z,14.80
2017-04-30T12:31:07.530Z,14.71
2017-04-30T12:32:08.078Z,14.73
2017-04-30T12:33:07.865Z,14.91
2017-04-30T12:34:07.489Z,14.96
2017-04-30T12:35:08.111Z,14.98
2017-04-30T12:36:07.627Z,15.02
2017-04-30T12:37:07.150Z,15.11
2017-04-30T12:38:07.783Z,15.16
2017-04-30T12:39:07.347Z,14.97
2017-04-30T12:40:07.845Z,14.90
2017-04-30T12:41:07.293Z,14.87
2017-04-30T12:42:07.896Z,14.89
2017-04-30T12:43:07.407Z,14.94
2017-04-30T12:44:07.953Z,14.99
2017-04-30T12:45:07.525Z,15.30
2017-04-30T12:46:08.124Z,15.89
2017-04-30T12:47:07.700Z,15.92
2017-04-30T12:48:07.312Z,15.95
2017-04-30T12:49:07.885Z,15.64
2017-04-30T12:50:07.503Z,15.55
2017-04-30T12:51:08.192Z,15.68
2017-04-30T12:52:08.035Z,15.73
2017-04-30T12:53:07.664Z,15.66
2017-04-30T12:54:07.392Z,15.62
2017-04-30T12:55:07.856Z,15.55
2017-04-30T12:56:07.373Z,15.55
2017-04-30T12:57:07.534Z,15.54
2017-04-30T12:58:08.126Z,15.66
2017-04-30T12:59:07.614Z,15.73
2017-04-30T13:00:07.069Z,15.73
2017-04-30T13:01:07.573Z,15.71
2017-04-30T13:02:08.106Z,15.62
2017-04-30T13:03:07.576Z,15.57
2017-04-30T13:04:08.166Z,15.74
2017-04-30T13:05:07.805Z,15.70
2017-04-30T13:06:07.394Z,15.76
2017-04-30T13:07:08.117Z,15.84
2017-04-30T13:08:07.632Z,16.05
2017-04-30T13:09:07.074Z,16.08